KSTK

Details ICAO KSTK (STK)
Name STERLING MUNI
Region United States
Timezone America/Denver (UTC-7.0)
Plans Departing 1
Arriving 1
Stats Elevation 4,038 ft / 1,231 m (AMSL)
Location 40.614794° -103.264581°
Runways 2
Magnetic Variation 7.343° E
Sunrise 2017-12-13 14:09:51 UTC / 2017-12-13 07:09:51 Local
Sunset 2017-12-13 23:27:46 UTC / 2017-12-13 16:27:46 Local
Advertisement - Login to hide

Runways

ID Width Length Bearing (true) Bearing (mag) Surface Threshold Offset Overrun Length
03 150 ft / 46 m 2,499 ft / 762 m 44.87° 37.53° Gravel 0 ft / 0 m 0 ft / 0 m
15 75 ft / 23 m 4,698 ft / 1,432 m 165.82° 158.48° Concrete 411 ft / 125 m 0 ft / 0 m
21 150 ft / 46 m 2,499 ft / 762 m 224.87° 217.53° Gravel 0 ft / 0 m 0 ft / 0 m
33 75 ft / 23 m 4,698 ft / 1,432 m 345.82° 338.48° Concrete 0 ft / 0 m 0 ft / 0 m

Map

Weather


0- 5 10 15 20 25 30 35+ Temperature / ° C

Clouds and Precipitation
Forecast for 2017-12-13 12:00 UTC. Updated 2 hours ago

Ground ~20,000 ft ~40,000 ft Winds

METAR

KSTK 131025Z AUTO 34012KT 10SM CLR 08/M11 A3004 RMK AO2

TAF

Not found

Frequencies

Recorded 118.52 MHz AWOS 3
Approach 118.47 MHz DENVER CNTR
Unicom 122.80 MHz CTAF/UNICOM
Warning: Do not use this data for real-world aviation or navigation. No guarantee of current accuracy is given.